Weather at Don Mueang International Airport

Public forecast

Using degrees Celsius for public forecast. Weather courtesy of forecast.io.

Current aviation weather report (METAR) for Don Mueang International Airport

2024/05/29 14:00 (retrieved 14 minutes ago)

VTBD 291400Z 25007KT 210V270 9999 FEW020 33/24 Q1007 NOSIG

Aviation forecast (TAF) for Don Mueang International Airport

2024/05/29 12:36 (retrieved 2 hours ago)

TAF VTBD 291100Z 2912/3018 21008KT 9000 FEW020 SCT100 TEMPO 2914/2917 VRB15KT 4000 TSRA FEW018CB SCT035 BECMG 2920/2922 29005KT BECMG 3001/3003 21008KT TEMPO 3009/3013 VRB20KT 3000 TSRA FEW018CB SCT030